Time;durP1;ratioP1;P1;durP2;ratioP2;P2;SDS_P1;SDS_P2;PMS_P1;PMS_P2;Temp;Humidity;BMP_temperature;BMP_pressure;BME280_temperature;BME280_humidity;BME280_pressure;Samples;Min_cycle;Max_cycle;Signal;HPM_P1;HPM_P2
2024/01/16 00:00:13;;;;;;;28.85;17.33;;;1.90;99.90;;;;;;4993559;28;20043;-77
2024/01/16 00:02:40;;;;;;;23.70;15.35;;;1.90;99.90;;;;;;4973619;28;20532;-77
2024/01/16 00:05:06;;;;;;;36.05;22.88;;;1.90;99.90;;;;;;4992449;28;20528;-76
2024/01/16 00:07:34;;;;;;;32.83;21.48;;;2.00;99.90;;;;;;4991320;28;20029;-76
2024/01/16 00:10:00;;;;;;;35.75;21.83;;;1.90;99.90;;;;;;4974503;28;20030;-77
2024/01/16 00:12:26;;;;;;;27.95;16.98;;;1.90;99.90;;;;;;4987924;28;20023;-76
2024/01/16 00:14:52;;;;;;;26.67;16.40;;;1.90;99.90;;;;;;4986632;28;20443;-77
2024/01/16 00:17:18;;;;;;;23.60;15.52;;;1.90;99.90;;;;;;4975802;28;20039;-77
2024/01/16 00:19:44;;;;;;;22.55;13.80;;;1.90;99.90;;;;;;4993532;28;20386;-76
2024/01/16 00:22:10;;;;;;;22.35;13.40;;;1.90;99.90;;;;;;4992798;28;20469;-77
2024/01/16 00:24:36;;;;;;;22.50;13.73;;;1.90;99.90;;;;;;4974308;28;20093;-76
2024/01/16 00:27:02;;;;;;;21.45;13.70;;;1.80;99.90;;;;;;4982483;28;20481;-77
2024/01/16 00:29:28;;;;;;;24.50;14.00;;;1.80;99.90;;;;;;4978586;28;20039;-77
2024/01/16 00:31:54;;;;;;;22.83;13.45;;;1.80;99.90;;;;;;4986395;28;20023;-76
2024/01/16 00:34:20;;;;;;;20.52;10.43;;;1.80;99.90;;;;;;4986841;28;20386;-76
2024/01/16 00:36:48;;;;;;;18.13;9.95;;;1.90;99.90;;;;;;4991227;28;20049;-77
2024/01/16 00:39:14;;;;;;;20.60;11.68;;;2.00;99.90;;;;;;4980276;28;20022;-76
2024/01/16 00:41:40;;;;;;;23.65;13.40;;;2.00;99.90;;;;;;4997148;28;20500;-77
2024/01/16 00:44:07;;;;;;;23.17;13.35;;;1.90;99.90;;;;;;4991733;28;20553;-77
2024/01/16 00:46:33;;;;;;;21.98;12.63;;;2.00;99.90;;;;;;4994501;28;20030;-76
2024/01/16 00:48:59;;;;;;;18.77;11.00;;;2.00;99.90;;;;;;4995780;28;20454;-77
2024/01/16 00:51:25;;;;;;;18.85;10.07;;;2.00;99.90;;;;;;4995975;28;20113;-77
2024/01/16 00:53:51;;;;;;;15.85;7.88;;;2.10;99.90;;;;;;4977803;28;20023;-76
2024/01/16 00:56:21;;;;;;;13.45;7.13;;;2.10;99.90;;;;;;4990452;28;20073;-76
2024/01/16 00:58:47;;;;;;;12.23;6.20;;;2.10;99.90;;;;;;4944025;28;20039;-77
2024/01/16 01:01:12;;;;;;;17.85;8.82;;;2.00;99.90;;;;;;4977505;28;20047;-77
2024/01/16 01:03:38;;;;;;;17.52;7.30;;;2.00;99.90;;;;;;4985574;28;20335;-76
2024/01/16 01:06:05;;;;;;;14.32;7.88;;;2.00;99.90;;;;;;4996720;28;20027;-77
2024/01/16 01:08:31;;;;;;;13.35;6.57;;;2.00;99.90;;;;;;4987153;28;20046;-76
2024/01/16 01:10:56;;;;;;;13.98;6.38;;;2.10;99.90;;;;;;4985430;28;20474;-76
2024/01/16 01:13:22;;;;;;;13.23;6.82;;;2.10;99.90;;;;;;4996102;28;20031;-77
2024/01/16 01:15:48;;;;;;;10.35;5.32;;;2.10;99.90;;;;;;4996574;28;20034;-76
2024/01/16 01:18:14;;;;;;;13.52;6.85;;;2.10;99.90;;;;;;4986539;28;20031;-76
2024/01/16 01:20:40;;;;;;;11.55;6.13;;;2.30;99.90;;;;;;4973709;28;20166;-77
2024/01/16 01:23:07;;;;;;;12.82;7.28;;;2.30;99.90;;;;;;4953839;28;20109;-76
2024/01/16 01:25:33;;;;;;;12.98;7.43;;;2.40;99.90;;;;;;4980725;28;20427;-76
2024/01/16 01:27:58;;;;;;;15.98;9.35;;;2.40;99.90;;;;;;4973267;28;20142;-76
2024/01/16 01:30:24;;;;;;;15.88;8.93;;;2.40;99.90;;;;;;4989563;28;20047;-76
2024/01/16 01:32:50;;;;;;;16.17;9.13;;;2.50;99.90;;;;;;4987309;28;20109;-76
2024/01/16 01:35:27;;;;;;;16.73;9.15;;;2.50;99.90;;;;;;4983071;28;20018;-76
2024/01/16 01:37:53;;;;;;;18.17;9.32;;;2.40;99.90;;;;;;4996141;28;20070;-76
2024/01/16 01:40:18;;;;;;;15.60;8.23;;;2.40;99.90;;;;;;4990758;28;20094;-76
2024/01/16 01:42:44;;;;;;;14.45;9.15;;;2.50;99.90;;;;;;4987735;28;20498;-77
2024/01/16 01:45:11;;;;;;;15.85;8.75;;;2.50;99.90;;;;;;4996060;28;20026;-76
2024/01/16 01:47:39;;;;;;;14.75;7.30;;;2.40;99.90;;;;;;4983366;28;20363;-76
2024/01/16 01:50:07;;;;;;;12.70;7.10;;;2.30;99.90;;;;;;4982215;28;20054;-77
2024/01/16 01:52:39;;;;;;;15.70;8.82;;;2.30;99.90;;;;;;4996126;28;20037;-77
2024/01/16 01:55:10;;;;;;;14.43;8.13;;;2.30;99.90;;;;;;4983478;28;20026;-77
2024/01/16 01:57:36;;;;;;;14.00;6.47;;;2.20;99.90;;;;;;4994608;28;20034;-76
2024/01/16 02:00:04;;;;;;;11.88;5.80;;;2.30;99.90;;;;;;4976192;28;20027;-76
2024/01/16 02:02:41;;;;;;;11.95;5.68;;;2.20;99.90;;;;;;4976127;28;20103;-77
2024/01/16 02:05:07;;;;;;;12.02;6.18;;;2.10;99.90;;;;;;4976277;28;20023;-77
2024/01/16 02:07:35;;;;;;;11.27;5.38;;;2.10;99.90;;;;;;4978320;28;20030;-76
2024/01/16 02:10:01;;;;;;;8.23;4.43;;;2.20;99.90;;;;;;4969328;28;20062;-77
2024/01/16 02:12:27;;;;;;;8.38;4.90;;;2.20;99.90;;;;;;4976061;28;20061;-76
2024/01/16 02:14:53;;;;;;;7.68;4.50;;;2.10;99.90;;;;;;4976236;28;20463;-77
2024/01/16 02:17:19;;;;;;;11.02;5.55;;;2.10;99.90;;;;;;4991336;28;20048;-76
2024/01/16 02:19:45;;;;;;;12.73;5.40;;;2.10;99.90;;;;;;4986340;28;20034;-76
2024/01/16 02:22:20;;;;;;;12.20;5.95;;;2.10;99.90;;;;;;4991438;28;20026;-76
2024/01/16 02:24:49;;;;;;;12.77;6.28;;;2.10;99.90;;;;;;4985024;28;20023;-77
2024/01/16 02:27:15;;;;;;;17.08;6.75;;;2.10;99.90;;;;;;4975833;28;20077;-76
2024/01/16 02:29:42;;;;;;;18.95;8.85;;;2.10;99.90;;;;;;4986332;28;20026;-77
2024/01/16 02:32:12;;;;;;;18.92;8.20;;;2.10;99.90;;;;;;4982018;28;20026;-77
2024/01/16 02:34:38;;;;;;;18.13;8.40;;;2.10;99.90;;;;;;4994927;28;20449;-76
2024/01/16 02:37:04;;;;;;;15.60;8.07;;;2.10;99.90;;;;;;4995577;28;20030;-78
2024/01/16 02:39:30;;;;;;;15.30;7.43;;;2.00;99.90;;;;;;4983484;28;20478;-77
2024/01/16 02:41:56;;;;;;;13.57;6.63;;;2.00;99.90;;;;;;4975492;28;20039;-77
2024/01/16 02:44:22;;;;;;;14.23;6.75;;;2.00;99.90;;;;;;4975625;28;20023;-77
2024/01/16 02:46:54;;;;;;;11.55;6.40;;;1.90;99.90;;;;;;4980856;28;20030;-76
2024/01/16 02:49:25;;;;;;;8.15;4.68;;;1.90;99.90;;;;;;4967602;28;20038;-76
2024/01/16 02:51:51;;;;;;;11.13;5.30;;;1.90;99.90;;;;;;4994869;28;20062;-76
2024/01/16 02:54:32;;;;;;;8.30;4.57;;;1.90;99.90;;;;;;4994660;28;20382;-77
2024/01/16 02:57:03;;;;;;;8.63;4.65;;;1.90;99.90;;;;;;4961212;28;20038;-77
2024/01/16 02:59:30;;;;;;;9.68;5.22;;;1.90;99.90;;;;;;4993273;28;20463;-77
2024/01/16 03:01:56;;;;;;;11.75;5.90;;;2.00;99.90;;;;;;4994664;28;20085;-77
2024/01/16 03:04:22;;;;;;;15.52;9.45;;;2.00;99.90;;;;;;4981202;28;20038;-77
2024/01/16 03:06:48;;;;;;;12.30;6.93;;;2.10;99.90;;;;;;4994630;28;20497;-77
2024/01/16 03:09:14;;;;;;;12.18;6.95;;;2.10;99.90;;;;;;4981402;28;20033;-77
2024/01/16 03:11:42;;;;;;;16.63;8.85;;;2.20;99.90;;;;;;4994472;28;20061;-77
2024/01/16 03:14:08;;;;;;;14.45;8.23;;;2.20;99.90;;;;;;4981158;28;20018;-77
2024/01/16 03:16:35;;;;;;;13.50;7.97;;;2.20;99.90;;;;;;4967402;28;20073;-77
2024/01/16 03:19:01;;;;;;;14.27;7.95;;;2.30;99.90;;;;;;4981505;28;20097;-77
2024/01/16 03:21:27;;;;;;;13.32;6.88;;;2.30;99.90;;;;;;4985114;28;20114;-76
2024/01/16 03:23:53;;;;;;;14.15;7.20;;;2.40;99.90;;;;;;4978306;28;20054;-77
2024/01/16 03:26:19;;;;;;;17.48;9.70;;;2.40;99.90;;;;;;4985300;28;20435;-76
2024/01/16 03:28:45;;;;;;;19.73;8.77;;;2.50;99.90;;;;;;4979805;28;20054;-77
2024/01/16 03:31:13;;;;;;;15.35;8.75;;;2.50;99.90;;;;;;4986989;28;20041;-77
2024/01/16 03:33:41;;;;;;;16.67;8.57;;;2.60;99.90;;;;;;4981133;28;20467;-77
2024/01/16 03:36:12;;;;;;;17.90;9.60;;;2.60;99.90;;;;;;4978268;28;20039;-76
2024/01/16 03:38:39;;;;;;;21.33;11.85;;;2.60;99.90;;;;;;4986698;28;20453;-77
2024/01/16 03:41:07;;;;;;;30.50;16.58;;;2.60;99.90;;;;;;4976493;28;20037;-77
2024/01/16 03:43:35;;;;;;;29.25;17.15;;;2.50;99.90;;;;;;4974457;28;20030;-77
2024/01/16 03:46:01;;;;;;;29.35;16.95;;;2.60;99.90;;;;;;4979327;28;20088;-77
2024/01/16 03:48:27;;;;;;;29.85;15.13;;;2.60;99.90;;;;;;4980546;28;20396;-77
2024/01/16 03:50:54;;;;;;;26.00;15.40;;;2.60;99.90;;;;;;4982375;28;20034;-78
2024/01/16 03:53:21;;;;;;;26.90;15.73;;;2.60;99.90;;;;;;4979456;28;20023;-77
2024/01/16 03:55:47;;;;;;;31.10;18.50;;;2.60;99.90;;;;;;4993494;28;20540;-78
2024/01/16 03:58:13;;;;;;;20.75;10.95;;;2.60;99.90;;;;;;4975069;28;20035;-77
2024/01/16 04:00:39;;;;;;;16.40;8.35;;;2.50;99.90;;;;;;4974237;28;20059;-77
2024/01/16 04:03:07;;;;;;;13.75;6.97;;;2.50;99.90;;;;;;4992468;28;20450;-77
2024/01/16 04:05:33;;;;;;;10.98;6.80;;;2.40;99.90;;;;;;4987431;23;20055;-76
2024/01/16 04:07:59;;;;;;;14.20;7.78;;;2.40;99.90;;;;;;4954680;29;20030;-77
2024/01/16 04:10:25;;;;;;;13.02;7.00;;;2.50;99.90;;;;;;4954581;29;20035;-77
2024/01/16 04:12:51;;;;;;;16.05;7.82;;;2.40;99.90;;;;;;4954411;29;20106;-77
2024/01/16 04:15:17;;;;;;;15.85;7.88;;;2.50;99.90;;;;;;4942546;29;20040;-77
2024/01/16 04:17:43;;;;;;;16.90;7.93;;;2.50;99.90;;;;;;4953419;29;20106;-77
2024/01/16 04:20:10;;;;;;;20.13;9.50;;;2.50;99.90;;;;;;4954387;29;20023;-77
2024/01/16 04:22:36;;;;;;;18.45;9.48;;;2.60;99.90;;;;;;4954651;29;20027;-77
2024/01/16 04:25:04;;;;;;;16.77;8.80;;;2.60;99.90;;;;;;4954476;29;20078;-77
2024/01/16 04:27:31;;;;;;;15.95;8.10;;;2.60;99.90;;;;;;4937491;29;20046;-76
2024/01/16 04:29:57;;;;;;;16.58;8.82;;;2.60;99.90;;;;;;4954105;29;20035;-77
2024/01/16 04:32:23;;;;;;;17.05;8.93;;;2.70;99.90;;;;;;4954504;29;20030;-77
2024/01/16 04:34:49;;;;;;;18.27;9.10;;;2.70;99.90;;;;;;4954342;29;20124;-77
2024/01/16 04:37:15;;;;;;;15.55;7.80;;;2.70;99.90;;;;;;4937230;29;20043;-77
2024/01/16 04:39:48;;;;;;;15.68;8.32;;;2.80;99.90;;;;;;4931327;29;20027;-78
2024/01/16 04:42:14;;;;;;;18.25;9.40;;;2.70;99.90;;;;;;4954329;29;20193;-77
2024/01/16 04:44:41;;;;;;;16.67;8.30;;;2.60;99.90;;;;;;4954520;29;20358;-77
2024/01/16 04:47:11;;;;;;;19.60;9.65;;;2.60;99.90;;;;;;4962193;23;20047;-76
2024/01/16 04:49:37;;;;;;;28.85;16.80;;;2.60;99.90;;;;;;4967945;28;20113;-78
2024/01/16 04:52:03;;;;;;;22.60;12.93;;;2.60;99.90;;;;;;4965076;28;20098;-78
2024/01/16 04:54:29;;;;;;;28.00;16.65;;;2.60;99.90;;;;;;4969949;28;20402;-77
2024/01/16 04:56:55;;;;;;;27.08;17.88;;;2.60;99.90;;;;;;4971125;28;20042;-77
2024/01/16 04:59:21;;;;;;;18.48;10.75;;;2.50;99.90;;;;;;4937176;29;20099;-76
2024/01/16 05:01:47;;;;;;;18.83;10.65;;;2.50;99.90;;;;;;4969828;28;20390;-77
2024/01/16 05:04:13;;;;;;;19.60;10.93;;;2.60;99.90;;;;;;4972837;28;20475;-77
2024/01/16 05:06:39;;;;;;;20.73;12.60;;;2.50;99.90;;;;;;4962194;28;20065;-76
2024/01/16 05:09:04;;;;;;;20.83;13.07;;;2.50;99.90;;;;;;4988410;23;20105;-77
2024/01/16 05:11:30;;;;;;;25.05;12.60;;;2.50;99.90;;;;;;4967568;28;20058;-77
2024/01/16 05:13:59;;;;;;;20.60;12.45;;;2.60;99.90;;;;;;4967325;28;20031;-77
2024/01/16 05:16:28;;;;;;;19.52;12.05;;;2.60;99.90;;;;;;4969272;28;20047;-77
2024/01/16 05:18:54;;;;;;;16.27;9.20;;;2.70;99.90;;;;;;4955912;28;20033;-78
2024/01/16 05:21:20;;;;;;;13.52;7.72;;;2.60;99.90;;;;;;4973889;28;20038;-77
2024/01/16 05:23:46;;;;;;;20.67;11.50;;;2.50;99.90;;;;;;4976167;28;20019;-77
2024/01/16 05:26:19;;;;;;;21.35;12.77;;;2.40;99.90;;;;;;4976786;28;20494;-77
2024/01/16 05:28:45;;;;;;;24.10;13.35;;;2.40;99.90;;;;;;4943241;28;20031;-76
2024/01/16 05:31:11;;;;;;;22.83;13.82;;;2.40;99.90;;;;;;4976396;28;20101;-77
2024/01/16 05:33:37;;;;;;;26.65;16.85;;;2.40;99.90;;;;;;4976344;28;20023;-75
2024/01/16 05:36:03;;;;;;;24.20;15.30;;;2.40;99.90;;;;;;4959341;28;20039;-76
2024/01/16 05:38:29;;;;;;;25.27;15.52;;;2.40;99.90;;;;;;4976791;28;20027;-76
2024/01/16 05:40:55;;;;;;;24.40;14.27;;;2.50;99.90;;;;;;4976438;28;20467;-77
2024/01/16 05:43:21;;;;;;;32.63;16.48;;;2.50;99.90;;;;;;4976392;28;20030;-77
2024/01/16 05:45:47;;;;;;;28.67;17.05;;;2.50;99.90;;;;;;4976025;28;20042;-77
2024/01/16 05:48:13;;;;;;;26.25;17.02;;;2.50;99.90;;;;;;4976797;28;20053;-77
2024/01/16 05:50:39;;;;;;;32.25;20.33;;;2.50;99.90;;;;;;4976211;28;20034;-77
2024/01/16 05:53:05;;;;;;;27.90;16.85;;;2.50;99.90;;;;;;4976202;28;20114;-77
2024/01/16 05:55:32;;;;;;;28.30;18.70;;;2.50;99.90;;;;;;4955880;28;20034;-77
2024/01/16 05:57:59;;;;;;;29.80;18.88;;;2.50;99.90;;;;;;4976418;28;20038;-77
2024/01/16 06:00:25;;;;;;;25.77;17.42;;;2.60;99.90;;;;;;4975935;28;20011;-77
2024/01/16 06:02:51;;;;;;;30.05;17.90;;;2.60;99.90;;;;;;4975912;28;20106;-77
2024/01/16 06:05:29;;;;;;;29.00;18.33;;;2.60;99.90;;;;;;4975990;28;20023;-76
2024/01/16 06:08:00;;;;;;;32.50;21.70;;;2.60;99.90;;;;;;4942574;28;20027;-79
2024/01/16 06:10:26;;;;;;;36.75;24.90;;;2.70;99.90;;;;;;4975949;28;20081;-76
2024/01/16 06:12:52;;;;;;;53.85;33.15;;;2.70;99.90;;;;;;4988421;23;20434;-77
2024/01/16 06:15:18;;;;;;;43.65;27.05;;;2.60;99.90;;;;;;4975622;28;20045;-76
2024/01/16 06:17:44;;;;;;;39.67;23.30;;;2.60;99.90;;;;;;4975655;28;20463;-76
2024/01/16 06:20:10;;;;;;;56.88;35.85;;;2.50;99.90;;;;;;4975850;28;20030;-75
2024/01/16 06:22:41;;;;;;;69.82;42.38;;;2.50;99.90;;;;;;4973809;28;20068;-77
2024/01/16 06:25:09;;;;;;;62.70;37.13;;;2.50;99.90;;;;;;4974119;28;20541;-77
2024/01/16 06:27:35;;;;;;;102.22;59.70;;;2.50;99.90;;;;;;4974211;28;20117;-77
2024/01/16 06:30:01;;;;;;;99.05;60.42;;;2.50;99.90;;;;;;4975299;28;20031;-77
2024/01/16 06:32:26;;;;;;;90.90;55.55;;;2.50;99.90;;;;;;4967302;28;20023;-77
2024/01/16 06:34:52;;;;;;;73.55;45.63;;;2.60;99.90;;;;;;4975692;28;20038;-76
2024/01/16 06:37:18;;;;;;;76.85;49.15;;;2.50;99.90;;;;;;4975067;28;20042;-76
2024/01/16 06:39:44;;;;;;;61.30;41.10;;;2.50;99.90;;;;;;4975103;28;20023;-77
2024/01/16 06:42:10;;;;;;;79.82;53.50;;;2.50;99.90;;;;;;4975099;28;20364;-77
2024/01/16 06:44:36;;;;;;;95.63;58.15;;;2.50;99.90;;;;;;4975025;28;20023;-77
2024/01/16 06:47:02;;;;;;;92.68;58.00;;;2.60;99.90;;;;;;4972012;28;20015;-76
2024/01/16 06:49:28;;;;;;;95.28;59.85;;;2.70;99.90;;;;;;4973172;28;20398;-76
2024/01/16 06:51:54;;;;;;;82.43;54.42;;;2.70;99.90;;;;;;4974083;28;20031;-76
2024/01/16 06:54:20;;;;;;;101.72;61.20;;;2.80;99.90;;;;;;4976496;28;20033;-77
2024/01/16 06:56:48;;;;;;;96.00;60.13;;;2.80;99.90;;;;;;4994694;28;20061;-77
2024/01/16 06:59:16;;;;;;;96.55;60.72;;;2.70;99.90;;;;;;4994479;28;20362;-76
2024/01/16 07:01:41;;;;;;;110.43;68.22;;;2.80;99.90;;;;;;4988016;28;20026;-77
2024/01/16 07:04:07;;;;;;;101.03;66.88;;;2.80;99.90;;;;;;4972336;28;20458;-77
2024/01/16 07:06:33;;;;;;;99.55;63.40;;;2.90;99.90;;;;;;4977367;28;20026;-77
2024/01/16 07:09:02;;;;;;;97.10;62.50;;;3.00;99.90;;;;;;4994507;28;20026;-77
2024/01/16 07:11:27;;;;;;;98.80;62.80;;;3.00;99.90;;;;;;4976588;28;20203;-77
2024/01/16 07:13:53;;;;;;;98.72;64.88;;;3.10;99.90;;;;;;4993124;28;20552;-77
2024/01/16 07:16:19;;;;;;;97.63;63.45;;;3.10;99.90;;;;;;4960549;28;20438;-76
2024/01/16 07:18:45;;;;;;;94.35;66.15;;;3.10;99.90;;;;;;4994383;28;20513;-77
2024/01/16 07:21:21;;;;;;;127.90;77.80;;;3.20;99.90;;;;;;4972605;28;20030;-76
2024/01/16 07:23:47;;;;;;;94.93;62.90;;;3.30;99.90;;;;;;4993771;28;20030;-78
2024/01/16 07:26:13;;;;;;;134.63;92.45;;;3.20;99.90;;;;;;4993487;28;20031;-76
2024/01/16 07:28:39;;;;;;;150.18;97.47;;;3.10;99.90;;;;;;4974743;28;20438;-76
2024/01/16 07:31:05;;;;;;;197.45;127.50;;;2.90;99.90;;;;;;4993889;28;20061;-77
2024/01/16 07:33:32;;;;;;;160.35;103.20;;;3.10;99.90;;;;;;4993225;28;20058;-77
2024/01/16 07:35:58;;;;;;;140.63;93.57;;;3.10;99.90;;;;;;4984014;28;20511;-76
2024/01/16 07:38:24;;;;;;;141.88;91.90;;;3.20;99.90;;;;;;4976122;28;20105;-77
2024/01/16 07:40:52;;;;;;;139.57;91.93;;;3.30;99.90;;;;;;4993674;28;20037;-76
2024/01/16 07:43:18;;;;;;;140.00;92.25;;;3.40;99.90;;;;;;4976552;28;20046;-75
2024/01/16 07:45:44;;;;;;;137.07;83.88;;;3.50;99.90;;;;;;4951861;28;20058;-78
2024/01/16 07:48:10;;;;;;;133.52;82.65;;;3.60;99.90;;;;;;4989622;28;20039;-74
2024/01/16 07:50:36;;;;;;;103.82;69.25;;;3.60;99.90;;;;;;4993531;28;20026;-75
2024/01/16 07:53:02;;;;;;;109.75;74.55;;;3.80;99.90;;;;;;4993605;28;20389;-76
2024/01/16 07:55:27;;;;;;;100.47;65.15;;;3.90;99.90;;;;;;4993805;28;20026;-76
2024/01/16 07:58:04;;;;;;;90.85;62.08;;;4.10;99.90;;;;;;4993590;28;20073;-76
2024/01/16 08:00:30;;;;;;;107.97;67.40;;;4.20;99.90;;;;;;4993741;28;20022;-75
2024/01/16 08:02:57;;;;;;;127.97;78.78;;;4.20;99.90;;;;;;4993333;28;20062;-76
2024/01/16 08:05:33;;;;;;;188.32;122.15;;;4.30;99.90;;;;;;4993723;28;20023;-75
2024/01/16 08:07:59;;;;;;;183.65;123.47;;;4.30;99.90;;;;;;4993181;28;20030;-75
2024/01/16 08:10:25;;;;;;;213.30;148.77;;;4.30;99.90;;;;;;4993404;28;20037;-75
2024/01/16 08:12:51;;;;;;;208.80;148.40;;;4.20;99.90;;;;;;4993319;28;20050;-77
2024/01/16 08:15:19;;;;;;;131.75;91.30;;;4.20;99.90;;;;;;4976232;28;20022;-75
2024/01/16 08:17:48;;;;;;;113.57;74.35;;;4.10;99.90;;;;;;4966749;28;20042;-76
2024/01/16 08:20:14;;;;;;;102.45;70.20;;;4.10;99.90;;;;;;4976074;28;20501;-76
2024/01/16 08:22:39;;;;;;;77.90;54.30;;;4.10;99.90;;;;;;4992917;28;20470;-76
2024/01/16 08:25:15;;;;;;;65.10;45.63;;;4.00;99.90;;;;;;4993309;28;20023;-75
2024/01/16 08:27:43;;;;;;;64.70;42.97;;;3.90;99.90;;;;;;4942920;28;20058;-74
2024/01/16 08:30:14;;;;;;;43.75;28.95;;;3.80;99.90;;;;;;4990461;28;20026;-75
2024/01/16 08:32:40;;;;;;;43.80;28.50;;;3.80;99.90;;;;;;4992490;28;20386;-74
2024/01/16 08:35:07;;;;;;;36.67;24.30;;;3.70;99.90;;;;;;4992954;28;20025;-76
2024/01/16 08:37:43;;;;;;;34.00;22.95;;;3.70;99.90;;;;;;4993131;28;20117;-76
2024/01/16 08:40:14;;;;;;;32.28;21.35;;;3.60;99.90;;;;;;4993001;28;20386;-76
2024/01/16 08:42:51;;;;;;;42.90;26.92;;;3.50;99.90;;;;;;4960185;28;20034;-75
2024/01/16 08:45:17;;;;;;;37.95;22.25;;;3.70;99.90;;;;;;4993350;28;20050;-75
2024/01/16 08:47:43;;;;;;;37.58;20.52;;;3.70;99.90;;;;;;4993173;28;20058;-75
2024/01/16 08:50:09;;;;;;;32.05;19.55;;;3.70;99.90;;;;;;4992523;28;20037;-76
2024/01/16 08:52:40;;;;;;;28.67;17.38;;;3.70;99.90;;;;;;4993216;28;20042;-75
2024/01/16 08:55:12;;;;;;;24.38;14.93;;;3.80;99.90;;;;;;4960086;28;20026;-80
2024/01/16 08:57:38;;;;;;;23.67;14.65;;;3.90;99.90;;;;;;4944871;28;20039;-75
2024/01/16 09:00:05;;;;;;;22.58;14.60;;;3.90;99.90;;;;;;4997087;28;20015;-75
2024/01/16 09:02:38;;;;;;;27.52;17.92;;;4.10;99.90;;;;;;4996893;28;20058;-76
2024/01/16 09:05:10;;;;;;;25.15;17.15;;;4.20;99.90;;;;;;4996721;28;20018;-76
2024/01/16 09:07:36;;;;;;;27.50;16.42;;;4.30;99.90;;;;;;4996826;28;20061;-75
2024/01/16 09:10:05;;;;;;;22.15;14.00;;;4.40;99.90;;;;;;4996564;28;20054;-76
2024/01/16 09:12:31;;;;;;;24.20;14.88;;;4.40;99.90;;;;;;4996522;28;20375;-76
2024/01/16 09:14:58;;;;;;;31.75;19.80;;;4.40;99.90;;;;;;4996213;28;20037;-76
2024/01/16 09:17:26;;;;;;;29.23;20.25;;;4.50;99.90;;;;;;4996432;28;20138;-76
2024/01/16 09:19:57;;;;;;;36.28;22.35;;;4.40;99.90;;;;;;4988801;28;20054;-76
2024/01/16 09:22:22;;;;;;;24.05;15.40;;;4.50;99.90;;;;;;4995875;28;20470;-75
2024/01/16 09:24:48;;;;;;;27.63;17.67;;;4.60;99.90;;;;;;4996400;28;20046;-75
2024/01/16 09:27:16;;;;;;;26.38;18.42;;;4.70;99.90;;;;;;4962948;28;20030;-76
2024/01/16 09:29:42;;;;;;;25.05;17.10;;;4.60;99.90;;;;;;4995902;28;20410;-75
2024/01/16 09:32:09;;;;;;;34.10;22.38;;;4.80;99.90;;;;;;4995697;28;20085;-76
2024/01/16 09:34:34;;;;;;;28.90;19.40;;;4.90;99.90;;;;;;4995731;28;20026;-75
2024/01/16 09:37:02;;;;;;;29.45;19.45;;;5.00;99.90;;;;;;4995974;28;20036;-76
2024/01/16 09:39:31;;;;;;;23.08;14.52;;;5.10;99.90;;;;;;4993665;28;20022;-76
2024/01/16 09:42:07;;;;;;;17.95;10.93;;;5.30;99.90;;;;;;4995637;28;20393;-76
2024/01/16 09:44:35;;;;;;;25.13;15.73;;;5.30;99.90;;;;;;4995793;28;20026;-75
2024/01/16 09:47:03;;;;;;;25.73;15.82;;;5.40;99.90;;;;;;4977473;28;20027;-76
2024/01/16 09:49:29;;;;;;;25.15;15.35;;;5.40;99.90;;;;;;4995857;28;20018;-75
2024/01/16 09:51:59;;;;;;;23.67;15.57;;;5.50;99.90;;;;;;4995437;28;20026;-77
2024/01/16 09:54:29;;;;;;;23.80;14.30;;;5.60;99.90;;;;;;4995695;28;20035;-76
2024/01/16 09:56:58;;;;;;;22.95;15.57;;;5.70;99.90;;;;;;4990610;28;20044;-76
2024/01/16 09:59:26;;;;;;;27.45;17.38;;;5.70;99.90;;;;;;4995717;28;20026;-76
2024/01/16 10:01:54;;;;;;;28.92;19.67;;;5.70;99.90;;;;;;4995255;28;20039;-75
2024/01/16 10:04:23;;;;;;;26.75;19.05;;;5.80;99.90;;;;;;4995645;28;20109;-76
2024/01/16 10:06:51;;;;;;;28.48;19.58;;;5.80;99.90;;;;;;4992930;28;20058;-75
2024/01/16 10:09:17;;;;;;;29.80;20.95;;;5.80;99.90;;;;;;4993013;28;20158;-76
2024/01/16 10:11:46;;;;;;;28.67;19.58;;;5.90;99.90;;;;;;4985210;28;20046;-75
2024/01/16 10:14:15;;;;;;;31.98;20.67;;;6.00;99.90;;;;;;4993004;28;20134;-76
2024/01/16 10:17:15;;;;;;;31.88;19.63;;;6.10;99.90;;;;;;4995003;28;20080;-74
2024/01/16 10:19:58;;;;;;;29.55;18.58;;;6.10;99.90;;;;;;4995510;28;20113;-74
2024/01/16 10:22:25;;;;;;;33.88;22.77;;;6.20;99.90;;;;;;4977062;28;20034;-74
2024/01/16 10:25:08;;;;;;;33.88;24.05;;;6.10;99.90;;;;;;4988621;28;20427;-75
2024/01/16 10:27:38;;;;;;;;;;;6.30;99.90;;;;;;4975909;28;20116;-73
2024/01/16 10:33:27;;;;;;;41.42;29.45;;;6.50;99.90;;;;;;4953451;29;20134;-74
2024/01/16 10:36:13;;;;;;;38.30;27.65;;;6.50;99.90;;;;;;4937470;29;20074;-73
2024/01/16 10:38:44;;;;;;;42.03;30.02;;;6.60;99.90;;;;;;4918896;29;20034;-75
2024/01/16 10:41:11;;;;;;;50.53;34.45;;;6.60;99.90;;;;;;4939175;29;20042;-76
2024/01/16 10:43:39;;;;;;;57.45;39.58;;;6.50;99.90;;;;;;4935706;29;20075;-75
2024/01/16 10:46:15;;;;;;;46.53;34.67;;;6.60;99.90;;;;;;4949141;29;20031;-76
2024/01/16 10:48:43;;;;;;;44.63;31.23;;;6.60;99.90;;;;;;4919211;29;20036;-75
2024/01/16 10:51:19;;;;;;;45.50;31.65;;;6.60;99.90;;;;;;4952068;29;20046;-76
2024/01/16 10:53:46;;;;;;;45.25;32.25;;;6.60;99.90;;;;;;4938917;29;20038;-75
2024/01/16 10:56:15;;;;;;;49.70;35.42;;;6.60;99.90;;;;;;4955990;29;20139;-75
2024/01/16 10:58:42;;;;;;;44.40;33.55;;;6.70;99.90;;;;;;4947203;29;20054;-74
2024/01/16 11:01:16;;;;;;;47.83;34.92;;;6.70;99.90;;;;;;4950743;29;20126;-75
2024/01/16 11:03:59;;;;;;;29.23;19.13;;;6.60;99.90;;;;;;4914384;29;20031;-75
2024/01/16 11:06:26;;;;;;;21.27;13.48;;;6.70;99.90;;;;;;4922774;29;20122;-75
2024/01/16 11:09:04;;;;;;;14.57;7.88;;;6.80;99.90;;;;;;4956329;29;20078;-74
2024/01/16 11:11:39;;;;;;;14.65;7.88;;;6.90;98.80;;;;;;4938847;29;20031;-75
2024/01/16 11:14:06;;;;;;;;;;;6.90;97.90;;;;;;4956169;29;20027;-75
2024/01/16 11:16:32;;;;;;;10.63;5.45;;;6.90;97.70;;;;;;4922708;29;19921;-75
2024/01/16 11:18:58;;;;;;;19.90;9.35;;;6.90;97.10;;;;;;4936271;29;20363;-74
2024/01/16 11:21:25;;;;;;;35.90;19.23;;;7.00;95.70;;;;;;4936569;29;20467;-77
2024/01/16 11:23:54;;;;;;;19.05;10.70;;;6.90;96.30;;;;;;4936200;29;20058;-74
2024/01/16 11:26:32;;;;;;;13.18;6.30;;;6.90;95.20;;;;;;4922787;29;20027;-74
2024/01/16 11:28:59;;;;;;;11.95;5.15;;;6.90;94.80;;;;;;4938342;29;20023;-75
2024/01/16 11:31:46;;;;;;;16.27;8.80;;;6.90;93.50;;;;;;4963324;28;20057;-75
2024/01/16 11:34:15;;;;;;;10.57;5.10;;;6.90;92.60;;;;;;4945689;28;20039;-73
2024/01/16 11:36:53;;;;;;;8.57;4.13;;;7.00;93.10;;;;;;4974554;28;20097;-73
2024/01/16 11:39:21;;;;;;;10.18;4.10;;;6.90;91.90;;;;;;4957081;28;20015;-73
2024/01/16 11:41:58;;;;;;;11.52;5.35;;;6.80;91.20;;;;;;4968500;28;20027;-73
2024/01/16 11:44:53;;;;;;;10.70;5.07;;;6.80;90.90;;;;;;4968892;28;20479;-76
2024/01/16 11:47:23;;;;;;;9.93;4.45;;;6.90;91.00;;;;;;4958688;28;20394;-76
2024/01/16 11:49:51;;;;;;;12.55;6.15;;;7.00;91.20;;;;;;4967880;28;20027;-79
2024/01/16 11:52:42;;;;;;;10.68;5.10;;;7.00;91.50;;;;;;4944478;29;20043;-77
2024/01/16 11:55:59;;;;;;;11.32;5.93;;;7.00;92.80;;;;;;4961248;28;20037;-77
2024/01/16 11:59:04;;;;;;;11.75;5.13;;;6.90;92.10;;;;;;4896107;29;20080;-76
2024/01/16 12:01:32;;;;;;;9.60;4.47;;;7.00;90.60;;;;;;4883652;29;20513;-77
2024/01/16 12:04:07;;;;;;;12.55;5.22;;;7.00;90.70;;;;;;4875436;29;20068;-77
2024/01/16 12:06:35;;;;;;;6.60;3.35;;;6.90;90.60;;;;;;4891122;29;20041;-77
2024/01/16 12:09:17;;;;;;;11.93;5.75;;;6.90;91.20;;;;;;4892215;29;20162;-78
2024/01/16 12:11:56;;;;;;;10.45;4.85;;;6.90;91.30;;;;;;4878376;29;20135;-76
2024/01/16 12:14:22;;;;;;;10.13;5.15;;;6.80;91.40;;;;;;4893472;29;20107;-76
2024/01/16 12:16:47;;;;;;;8.20;4.28;;;6.90;91.00;;;;;;4876650;29;20127;-75
2024/01/16 12:19:13;;;;;;;9.70;4.18;;;6.90;91.10;;;;;;4894912;29;20036;-75
2024/01/16 12:21:40;;;;;;;12.15;5.13;;;6.90;91.40;;;;;;4894992;29;20028;-74
2024/01/16 12:24:18;;;;;;;9.18;4.32;;;7.00;93.30;;;;;;4895659;29;20035;-76
2024/01/16 12:26:44;;;;;;;11.25;5.63;;;7.00;92.20;;;;;;4879760;29;20484;-75
2024/01/16 12:29:20;;;;;;;11.02;5.43;;;7.00;91.50;;;;;;4895845;29;20044;-75
2024/01/16 12:31:46;;;;;;;9.73;4.65;;;6.90;90.20;;;;;;4902636;29;20047;-75
2024/01/16 12:34:18;;;;;;;9.70;4.38;;;6.90;90.70;;;;;;4972911;28;20035;-74
2024/01/16 12:36:45;;;;;;;18.83;9.00;;;7.00;91.40;;;;;;4978007;28;20045;-75
2024/01/16 12:39:23;;;;;;;15.38;7.85;;;7.00;90.30;;;;;;4977944;28;20034;-75
2024/01/16 12:41:49;;;;;;;7.95;4.63;;;7.00;90.60;;;;;;4960917;28;20059;-75
2024/01/16 12:44:18;;;;;;;6.28;3.60;;;7.00;91.20;;;;;;4977422;28;20483;-74
2024/01/16 12:47:04;;;;;;;17.05;6.60;;;6.90;91.60;;;;;;4960575;28;20031;-75
2024/01/16 12:49:32;;;;;;;13.23;6.82;;;6.90;90.50;;;;;;4902147;29;20036;-75